Caribou Island, Canada
Current Conditions -  °F | °C
As of 12:00 PM on Thursday 27 Nov 2014 (Local Time) from CYXZ Reporting Station
Scattered Clouds Scattered Clouds  
Wind Chill: -18°   Ceiling: Unl
Heat Index:   Visibility: 15mi
Dew Point: -8°   Wind: 13mph
Humidity: 72%   Direction: 30°NNE
Pressure: 30.23"   Gusts: NA
Location:  47.33°N, 85.83°W
Report Text: CYXZ 271700Z 03011KT 350V050 15SM SCT035 M18/M22 A3023 RMK SC3 SLP265
Loading
Personal Weather Stations






























Interactive Weather Map New forecast layout! Learn more

10-Day Weather Forecast

Advertisements
Track Severe Weather on mobile